createdAt,value
2023-04-08T00:02:22.146Z,73.00
2023-04-08T00:04:51.041Z,72.89
2023-04-08T00:07:19.515Z,73.09
2023-04-08T00:09:47.717Z,72.77
2023-04-08T00:12:16.238Z,73.38
2023-04-08T00:14:44.407Z,75.38
2023-04-08T00:17:13.305Z,75.70
2023-04-08T00:19:41.912Z,75.10
2023-04-08T00:22:11.753Z,74.00
2023-04-08T00:24:40.981Z,73.64
2023-04-08T00:27:13.775Z,73.68
2023-04-08T00:29:42.956Z,73.58
2023-04-08T00:32:11.158Z,74.73
2023-04-08T00:34:39.476Z,75.21
2023-04-08T00:37:07.994Z,77.28
2023-04-08T00:39:37.509Z,77.68
2023-04-08T00:42:05.729Z,75.93
2023-04-08T00:44:34.110Z,75.86
2023-04-08T00:47:03.674Z,76.04
2023-04-08T00:49:32.711Z,76.13
2023-04-08T00:52:01.564Z,76.43
2023-04-08T00:54:31.957Z,76.52
2023-04-08T00:57:01.455Z,77.18
2023-04-08T00:59:31.586Z,78.77
2023-04-08T01:02:12.589Z,78.80
2023-04-08T01:04:53.744Z,78.53
2023-04-08T01:07:34.051Z,78.69
2023-04-08T01:10:18.783Z,77.51
2023-04-08T01:12:55.332Z,77.72
2023-04-08T01:15:27.126Z,78.84
2023-04-08T01:17:58.925Z,79.76
2023-04-08T01:20:28.985Z,82.16
2023-04-08T01:23:02.296Z,81.73
2023-04-08T01:25:36.799Z,80.68
2023-04-08T01:28:12.473Z,79.65
2023-04-08T01:30:42.751Z,79.40
2023-04-08T01:33:13.771Z,79.04
2023-04-08T01:35:47.457Z,79.80
2023-04-08T01:38:20.240Z,79.61
2023-04-08T01:40:51.261Z,81.24
2023-04-08T01:43:20.573Z,82.07
2023-04-08T01:45:50.456Z,80.99
2023-04-08T01:48:20.918Z,79.86
2023-04-08T01:50:51.505Z,79.25
2023-04-08T01:53:20.098Z,78.91
2023-04-08T01:55:55.858Z,78.81
2023-04-08T01:58:28.233Z,78.72
2023-04-08T02:00:59.075Z,80.98
2023-04-08T02:03:31.356Z,80.56
2023-04-08T02:06:00.061Z,79.93
2023-04-08T02:08:28.345Z,79.16
2023-04-08T02:10:57.216Z,78.72
2023-04-08T02:13:26.115Z,78.74
2023-04-08T02:16:03.376Z,78.41
2023-04-08T02:18:36.451Z,79.36
2023-04-08T02:21:14.756Z,82.00
2023-04-08T02:23:51.443Z,81.52
2023-04-08T02:26:22.385Z,80.35
2023-04-08T02:28:52.629Z,79.64
2023-04-08T02:31:24.803Z,79.15
2023-04-08T02:33:56.128Z,79.01
2023-04-08T02:36:26.113Z,80.34
2023-04-08T02:38:56.283Z,79.81
2023-04-08T02:41:29.183Z,82.53
2023-04-08T02:43:58.259Z,81.99
2023-04-08T02:46:28.319Z,81.14
2023-04-08T02:48:56.812Z,80.47
2023-04-08T02:51:25.163Z,81.40
2023-04-08T02:53:54.429Z,82.52
2023-04-08T02:56:22.826Z,83.47
2023-04-08T02:58:52.394Z,83.35
2023-04-08T03:01:21.373Z,85.06
2023-04-08T03:03:50.747Z,84.70
2023-04-08T03:06:19.025Z,83.79
2023-04-08T03:08:47.607Z,83.70
2023-04-08T03:11:17.601Z,84.05
2023-04-08T03:13:46.994Z,83.19
2023-04-08T03:16:19.989Z,85.77
2023-04-08T03:18:53.751Z,87.45
2023-04-08T03:21:21.934Z,85.83
2023-04-08T03:23:50.640Z,85.35
2023-04-08T03:26:19.392Z,85.21
2023-04-08T03:28:48.161Z,83.81
2023-04-08T03:31:16.724Z,84.31
2023-04-08T03:33:45.360Z,84.66
2023-04-08T03:36:13.660Z,86.24
2023-04-08T03:38:42.383Z,86.13
2023-04-08T03:41:11.063Z,85.25
2023-04-08T03:43:41.364Z,84.75
2023-04-08T03:46:09.847Z,84.74
2023-04-08T03:48:40.985Z,84.66
2023-04-08T03:51:09.274Z,85.64
2023-04-08T03:53:42.171Z,87.94
2023-04-08T03:56:10.787Z,88.22
2023-04-08T03:58:39.432Z,85.89
2023-04-08T04:01:07.846Z,84.48
2023-04-08T04:03:37.127Z,84.25
2023-04-08T04:06:05.848Z,84.04
2023-04-08T04:08:34.452Z,84.51
2023-04-08T04:11:03.309Z,86.18
2023-04-08T04:13:31.534Z,86.32
2023-04-08T04:16:01.788Z,84.76
2023-04-08T04:18:30.794Z,83.60
2023-04-08T04:20:59.187Z,82.78
2023-04-08T04:23:27.500Z,82.20
2023-04-08T04:25:56.105Z,81.84
2023-04-08T04:28:25.624Z,82.61
2023-04-08T04:30:55.921Z,85.06
2023-04-08T04:33:26.545Z,84.23
2023-04-08T04:35:55.091Z,82.69
2023-04-08T04:38:23.673Z,81.34
2023-04-08T04:40:51.938Z,80.65
2023-04-08T04:43:21.197Z,80.94
2023-04-08T04:45:52.963Z,80.59
2023-04-08T04:48:21.511Z,80.21
2023-04-08T04:50:57.272Z,79.79
2023-04-08T04:53:26.130Z,80.90
2023-04-08T04:55:54.610Z,79.36
2023-04-08T04:58:23.108Z,77.99
2023-04-08T05:00:53.036Z,75.66
2023-04-08T05:03:22.438Z,74.33
2023-04-08T05:05:55.588Z,74.64
2023-04-08T05:08:27.717Z,73.74
2023-04-08T05:10:56.987Z,73.79
2023-04-08T05:13:28.173Z,73.26
2023-04-08T05:15:58.941Z,72.78
2023-04-08T05:18:27.488Z,73.61
2023-04-08T05:20:58.830Z,72.34
2023-04-08T05:23:27.247Z,70.00
2023-04-08T05:25:56.285Z,68.07
2023-04-08T05:28:28.382Z,67.07
2023-04-08T05:30:56.898Z,66.81
2023-04-08T05:33:26.676Z,65.93
2023-04-08T05:35:59.406Z,64.99
2023-04-08T05:38:27.747Z,64.32
2023-04-08T05:40:57.720Z,64.53
2023-04-08T05:43:26.232Z,64.10
2023-04-08T05:45:59.289Z,63.13
2023-04-08T05:48:29.102Z,63.35
2023-04-08T05:50:57.679Z,62.69
2023-04-08T05:53:28.091Z,62.00
2023-04-08T05:55:56.405Z,62.13
2023-04-08T05:58:25.478Z,62.18
2023-04-08T06:00:55.761Z,63.04
2023-04-08T06:03:26.203Z,63.63
2023-04-08T06:05:55.135Z,63.62
2023-04-08T06:08:24.901Z,64.45
2023-04-08T06:10:53.324Z,64.55
2023-04-08T06:13:25.692Z,64.74
2023-04-08T06:15:54.284Z,64.56
2023-04-08T06:18:23.009Z,64.12
2023-04-08T06:20:51.248Z,63.75
2023-04-08T06:23:19.556Z,63.52
2023-04-08T06:25:48.010Z,63.56
2023-04-08T06:28:16.327Z,62.55
2023-04-08T06:30:47.445Z,62.62
2023-04-08T06:33:16.201Z,62.10
2023-04-08T06:35:45.574Z,62.31
2023-04-08T06:38:14.434Z,62.09
2023-04-08T06:40:44.005Z,62.42
2023-04-08T06:43:12.697Z,62.58
2023-04-08T06:45:43.069Z,62.74
2023-04-08T06:48:12.382Z,62.43
2023-04-08T06:50:46.707Z,62.82
2023-04-08T06:53:15.801Z,62.91
2023-04-08T06:55:44.392Z,63.00
2023-04-08T06:58:13.908Z,63.04
2023-04-08T07:00:43.212Z,63.29
2023-04-08T07:03:14.738Z,63.38
2023-04-08T07:05:44.004Z,63.68
2023-04-08T07:08:12.484Z,64.23
2023-04-08T07:10:42.203Z,64.42
2023-04-08T07:13:11.783Z,64.46
2023-04-08T07:15:42.876Z,64.77
2023-04-08T07:18:14.475Z,64.79
2023-04-08T07:20:43.347Z,64.51
2023-04-08T07:23:12.816Z,64.55
2023-04-08T07:25:41.636Z,64.80
2023-04-08T07:28:10.219Z,64.67
2023-04-08T07:30:39.428Z,64.50
2023-04-08T07:33:08.079Z,64.33
2023-04-08T07:35:38.528Z,64.12
2023-04-08T07:38:11.715Z,64.05
2023-04-08T07:40:40.220Z,63.81
2023-04-08T07:43:09.846Z,63.35
2023-04-08T07:45:38.106Z,62.99
2023-04-08T07:48:08.632Z,62.86
2023-04-08T07:51:08.914Z,62.75
2023-04-08T07:53:28.797Z,62.63
2023-04-08T07:55:57.166Z,62.32
2023-04-08T07:58:26.626Z,62.81
2023-04-08T08:00:55.634Z,62.75
2023-04-08T08:03:25.786Z,62.71
2023-04-08T08:05:54.257Z,62.49
2023-04-08T08:08:22.516Z,62.57
2023-04-08T08:10:50.774Z,62.25
2023-04-08T08:13:22.231Z,62.18
2023-04-08T08:15:54.033Z,61.95
2023-04-08T08:18:23.275Z,61.84
2023-04-08T08:20:51.580Z,61.54
2023-04-08T08:23:22.293Z,61.34
2023-04-08T08:25:58.981Z,60.61
2023-04-08T08:28:34.039Z,61.25
2023-04-08T08:31:03.721Z,61.13
2023-04-08T08:33:33.235Z,61.29
2023-04-08T08:36:05.869Z,61.65
2023-04-08T08:38:35.951Z,61.84
2023-04-08T08:41:05.037Z,62.37
2023-04-08T08:43:34.303Z,62.76
2023-04-08T08:46:03.850Z,62.95
2023-04-08T08:48:34.184Z,63.37
2023-04-08T08:51:09.423Z,63.25
2023-04-08T08:53:39.240Z,63.00
2023-04-08T08:58:41.120Z,63.45
2023-04-08T09:01:41.725Z,63.61
2023-04-08T09:04:11.973Z,63.61
2023-04-08T09:06:44.474Z,63.83
2023-04-08T09:09:14.065Z,64.05
2023-04-08T09:11:47.390Z,64.04
2023-04-08T09:14:25.914Z,64.12
2023-04-08T09:16:54.673Z,64.09
2023-04-08T09:19:31.428Z,64.06
2023-04-08T09:22:10.894Z,63.89
2023-04-08T09:24:39.247Z,63.72
2023-04-08T09:27:07.942Z,63.61
2023-04-08T09:29:39.855Z,63.80
2023-04-08T09:32:09.242Z,63.43
2023-04-08T09:34:37.864Z,62.96
2023-04-08T09:37:07.386Z,62.94
2023-04-08T09:39:39.108Z,62.47
2023-04-08T09:42:12.134Z,61.78
2023-04-08T09:44:44.944Z,61.46
2023-04-08T09:47:23.936Z,61.31
2023-04-08T09:49:58.641Z,60.69
2023-04-08T09:52:47.163Z,60.68
2023-04-08T09:55:22.077Z,60.76
2023-04-08T09:57:50.458Z,60.73
2023-04-08T10:00:19.830Z,60.25
2023-04-08T10:02:58.676Z,60.02
2023-04-08T10:05:28.168Z,59.77
2023-04-08T10:07:59.015Z,59.59
2023-04-08T10:10:28.061Z,59.42
2023-04-08T10:12:58.354Z,59.17
2023-04-08T10:15:28.222Z,58.77
2023-04-08T10:18:08.048Z,57.61
2023-04-08T10:20:43.355Z,57.31
2023-04-08T10:23:14.035Z,57.40
2023-04-08T10:25:48.189Z,56.74
2023-04-08T10:28:25.255Z,56.44
2023-04-08T10:30:55.835Z,56.12
2023-04-08T10:33:33.710Z,55.66
2023-04-08T10:36:10.387Z,56.18
2023-04-08T10:38:39.863Z,55.43
2023-04-08T10:41:14.557Z,56.30
2023-04-08T10:43:43.149Z,56.68
2023-04-08T10:46:13.150Z,56.30
2023-04-08T10:48:41.837Z,56.56
2023-04-08T10:51:14.270Z,56.08
2023-04-08T10:53:45.735Z,56.18
2023-04-08T10:56:16.690Z,55.77
2023-04-08T10:58:51.597Z,55.72
2023-04-08T11:01:20.751Z,54.74
2023-04-08T11:03:50.486Z,54.79
2023-04-08T11:06:20.256Z,54.56
2023-04-08T11:08:48.686Z,54.16
2023-04-08T11:11:17.433Z,53.51
2023-04-08T11:13:53.473Z,53.61
2023-04-08T11:16:23.266Z,53.63
2023-04-08T11:18:52.128Z,53.58
2023-04-08T11:21:22.477Z,53.08
2023-04-08T11:23:52.296Z,52.34
2023-04-08T11:26:21.296Z,50.86
2023-04-08T11:28:52.131Z,51.15
2023-04-08T11:31:24.663Z,50.46
2023-04-08T11:33:57.589Z,51.35
2023-04-08T11:36:27.413Z,51.19
2023-04-08T11:38:56.129Z,51.71
2023-04-08T11:41:36.410Z,52.75
2023-04-08T11:44:06.985Z,52.83
2023-04-08T11:46:38.056Z,52.09
2023-04-08T11:49:08.821Z,52.17
2023-04-08T11:51:55.234Z,51.83
2023-04-08T11:54:32.086Z,51.41
2023-04-08T11:57:01.018Z,51.02
2023-04-08T11:59:31.827Z,50.50
2023-04-08T12:02:02.205Z,50.09
2023-04-08T12:04:31.274Z,49.99
2023-04-08T12:07:02.188Z,48.96
2023-04-08T12:09:30.697Z,49.10
2023-04-08T12:11:59.601Z,48.44
2023-04-08T12:14:29.252Z,47.69
2023-04-08T12:16:58.380Z,48.84
2023-04-08T12:19:34.433Z,48.68
2023-04-08T12:22:04.759Z,48.95
2023-04-08T12:24:33.457Z,48.87
2023-04-08T12:27:10.560Z,48.46
2023-04-08T12:29:40.142Z,48.08
2023-04-08T12:32:08.440Z,47.36
2023-04-08T12:34:38.276Z,47.52
2023-04-08T12:37:06.807Z,47.79
2023-04-08T12:39:40.536Z,47.42
2023-04-08T12:42:09.549Z,45.51
2023-04-08T12:44:37.787Z,43.90
2023-04-08T12:47:06.588Z,44.02
2023-04-08T12:49:46.677Z,43.90
2023-04-08T12:52:24.376Z,43.68
2023-04-08T12:54:53.164Z,43.60
2023-04-08T12:57:21.544Z,42.20
2023-04-08T12:59:49.845Z,41.75
2023-04-08T13:02:18.140Z,42.23
2023-04-08T13:04:46.741Z,43.12
2023-04-08T13:07:15.514Z,44.24
2023-04-08T13:09:45.464Z,45.24
2023-04-08T13:12:18.874Z,45.82
2023-04-08T13:14:48.108Z,46.40
2023-04-08T13:17:16.607Z,46.82
2023-04-08T13:19:45.110Z,47.22
2023-04-08T13:22:14.277Z,47.46
2023-04-08T13:24:47.070Z,47.35
2023-04-08T13:27:15.520Z,47.50
2023-04-08T13:29:43.756Z,48.02
2023-04-08T13:32:12.450Z,47.95
2023-04-08T13:34:42.675Z,47.90
2023-04-08T13:37:11.555Z,48.18
2023-04-08T13:39:41.638Z,48.47
2023-04-08T13:42:10.182Z,47.92
2023-04-08T13:44:39.510Z,50.52
2023-04-08T13:47:07.718Z,52.69
2023-04-08T13:49:37.217Z,53.50
2023-04-08T13:52:05.588Z,55.23
2023-04-08T13:54:36.475Z,56.05
2023-04-08T13:57:05.333Z,57.65
2023-04-08T13:59:33.699Z,58.92
2023-04-08T14:02:02.329Z,59.12
2023-04-08T14:04:31.806Z,58.41
2023-04-08T14:07:01.178Z,58.33
2023-04-08T14:09:29.606Z,58.26
2023-04-08T14:11:59.066Z,59.29
2023-04-08T14:14:27.245Z,60.13
2023-04-08T14:16:56.374Z,60.82
2023-04-08T14:19:25.158Z,61.01
2023-04-08T14:21:55.362Z,60.81
2023-04-08T14:24:23.573Z,60.53
2023-04-08T14:26:51.853Z,59.45
2023-04-08T14:29:21.076Z,60.33
2023-04-08T14:31:49.628Z,61.05
2023-04-08T14:34:17.876Z,61.48
2023-04-08T14:36:46.701Z,61.79
2023-04-08T14:39:15.507Z,61.86
2023-04-08T14:41:44.875Z,61.54
2023-04-08T14:44:13.067Z,60.81
2023-04-08T14:46:42.307Z,60.68
2023-04-08T14:49:10.977Z,60.85
2023-04-08T14:51:39.335Z,61.09
2023-04-08T14:54:07.721Z,60.65
2023-04-08T14:56:36.500Z,60.34
2023-04-08T14:59:06.249Z,60.17
2023-04-08T15:01:35.923Z,60.15
2023-04-08T15:04:04.839Z,60.01
2023-04-08T15:06:33.351Z,59.92
2023-04-08T15:09:02.502Z,58.94
2023-04-08T15:11:31.007Z,58.71
2023-04-08T15:13:59.510Z,57.97
2023-04-08T15:16:28.415Z,59.10
2023-04-08T15:18:59.921Z,59.30
2023-04-08T15:21:29.482Z,59.67
2023-04-08T15:23:58.714Z,60.62
2023-04-08T15:26:27.978Z,60.62
2023-04-08T15:28:59.161Z,61.06
2023-04-08T15:31:27.687Z,61.60
2023-04-08T15:33:56.548Z,61.80
2023-04-08T15:36:25.196Z,61.80
2023-04-08T15:38:53.869Z,62.03
2023-04-08T15:41:22.914Z,61.96
2023-04-08T15:43:53.365Z,61.91
2023-04-08T15:46:21.786Z,62.30
2023-04-08T15:48:50.991Z,62.39
2023-04-08T15:51:20.616Z,62.52
2023-04-08T15:53:50.526Z,62.45
2023-04-08T15:56:19.361Z,62.48
2023-04-08T15:58:47.871Z,62.70
2023-04-08T16:01:17.147Z,62.75
2023-04-08T16:03:49.326Z,62.91
2023-04-08T16:06:17.689Z,63.01
2023-04-08T16:08:47.295Z,62.65
2023-04-08T16:11:15.881Z,62.65
2023-04-08T16:13:46.339Z,62.66
2023-04-08T16:16:15.215Z,62.75
2023-04-08T16:18:49.332Z,62.91
2023-04-08T16:21:18.670Z,63.16
2023-04-08T16:23:46.903Z,63.76
2023-04-08T16:26:16.120Z,63.73
2023-04-08T16:28:46.124Z,63.65
2023-04-08T16:31:14.365Z,63.77
2023-04-08T16:33:42.764Z,64.04
2023-04-08T16:36:11.495Z,63.96
2023-04-08T16:38:44.443Z,64.13
2023-04-08T16:41:12.914Z,64.25
2023-04-08T16:43:41.541Z,64.62
2023-04-08T16:46:16.219Z,64.68
2023-04-08T16:48:45.128Z,64.24
2023-04-08T16:51:13.566Z,64.38
2023-04-08T16:53:42.760Z,64.50
2023-04-08T16:56:17.769Z,64.14
2023-04-08T16:58:46.874Z,64.02
2023-04-08T17:01:21.306Z,63.91
2023-04-08T17:03:52.381Z,64.19
2023-04-08T17:06:20.982Z,64.75
2023-04-08T17:08:49.662Z,65.46
2023-04-08T17:11:18.389Z,65.87
2023-04-08T17:13:47.117Z,68.00
2023-04-08T17:16:19.052Z,67.83
2023-04-08T17:18:50.542Z,66.81
2023-04-08T17:21:20.270Z,65.56
2023-04-08T17:23:52.594Z,64.56
2023-04-08T17:26:25.083Z,64.06
2023-04-08T17:28:53.972Z,63.51
2023-04-08T17:31:22.904Z,64.04
2023-04-08T17:33:51.662Z,64.88
2023-04-08T17:36:20.107Z,65.18
2023-04-08T17:38:49.624Z,66.15
2023-04-08T17:41:29.894Z,66.01
2023-04-08T17:44:07.223Z,66.09
2023-04-08T17:46:35.735Z,66.41
2023-04-08T17:49:11.325Z,66.83
2023-04-08T17:51:40.468Z,68.13
2023-04-08T17:54:09.055Z,70.18
2023-04-08T17:56:40.017Z,70.54
2023-04-08T17:59:08.970Z,69.62
2023-04-08T18:01:39.837Z,69.20
2023-04-08T18:04:10.564Z,68.77
2023-04-08T18:06:39.631Z,68.16
2023-04-08T18:09:07.940Z,68.42
2023-04-08T18:11:38.648Z,68.65
2023-04-08T18:14:07.095Z,70.88
2023-04-08T18:16:44.493Z,71.38
2023-04-08T18:19:14.434Z,71.99
2023-04-08T18:21:42.622Z,71.73
2023-04-08T18:24:11.227Z,72.24
2023-04-08T18:26:39.523Z,72.05
2023-04-08T18:29:08.075Z,71.66
2023-04-08T18:31:37.444Z,71.14
2023-04-08T18:34:05.726Z,71.01
2023-04-08T18:36:34.443Z,70.58
2023-04-08T18:39:03.204Z,69.66
2023-04-08T18:41:32.980Z,69.54
2023-04-08T18:44:03.273Z,69.98
2023-04-08T18:46:31.716Z,72.78
2023-04-08T18:49:00.132Z,74.43
2023-04-08T18:51:29.529Z,73.75
2023-04-08T18:53:58.181Z,72.40
2023-04-08T18:56:26.796Z,71.70
2023-04-08T18:58:55.346Z,71.93
2023-04-08T19:01:23.751Z,71.67
2023-04-08T19:03:53.249Z,71.93
2023-04-08T19:06:22.907Z,71.61
2023-04-08T19:08:51.340Z,71.93
2023-04-08T19:11:26.596Z,72.30
2023-04-08T19:13:56.745Z,74.21
2023-04-08T19:16:26.907Z,73.82
2023-04-08T19:18:56.319Z,72.80
2023-04-08T19:21:24.716Z,72.94
2023-04-08T19:23:53.173Z,72.74
2023-04-08T19:26:24.058Z,72.27
2023-04-08T19:28:52.340Z,72.83
2023-04-08T19:31:21.732Z,74.20
2023-04-08T19:33:50.256Z,73.83
2023-04-08T19:36:26.261Z,74.53
2023-04-08T19:38:54.766Z,74.02
2023-04-08T19:41:23.310Z,71.52
2023-04-08T19:43:52.796Z,71.00
2023-04-08T19:46:21.496Z,71.31
2023-04-08T19:48:50.140Z,71.51
2023-04-08T19:51:22.677Z,71.03
2023-04-08T19:53:56.426Z,71.24
2023-04-08T19:56:26.591Z,71.04
2023-04-08T19:58:55.230Z,71.11
2023-04-08T20:01:23.923Z,70.81
2023-04-08T20:03:53.141Z,71.07
2023-04-08T20:06:23.217Z,72.51
2023-04-08T20:08:53.818Z,72.37
2023-04-08T20:11:23.234Z,71.87
2023-04-08T20:13:51.710Z,71.41
2023-04-08T20:16:21.002Z,71.18
2023-04-08T20:18:49.536Z,70.98
2023-04-08T20:21:26.406Z,71.01
2023-04-08T20:23:54.787Z,71.28
2023-04-08T20:26:23.014Z,71.51
2023-04-08T20:28:52.289Z,71.45
2023-04-08T20:31:21.259Z,72.27
2023-04-08T20:33:51.212Z,73.94
2023-04-08T20:36:20.924Z,73.71
2023-04-08T20:38:49.639Z,73.14
2023-04-08T20:41:20.387Z,72.66
2023-04-08T20:43:52.613Z,72.54
2023-04-08T20:46:22.593Z,72.52
2023-04-08T20:48:51.752Z,72.48
2023-04-08T20:51:20.535Z,73.69
2023-04-08T20:53:48.955Z,73.75
2023-04-08T20:56:18.122Z,74.31
2023-04-08T20:58:46.515Z,75.91
2023-04-08T21:01:14.979Z,75.55
2023-04-08T21:03:43.591Z,74.96
2023-04-08T21:06:19.338Z,74.57
2023-04-08T21:08:49.902Z,74.90
2023-04-08T21:11:18.822Z,75.37
2023-04-08T21:13:49.754Z,76.47
2023-04-08T21:16:19.525Z,77.14
2023-04-08T21:18:48.102Z,78.63
2023-04-08T21:21:21.683Z,78.09
2023-04-08T21:23:51.332Z,77.42
2023-04-08T21:26:19.803Z,77.19
2023-04-08T21:28:50.231Z,76.70
2023-04-08T21:31:19.471Z,77.65
2023-04-08T21:33:47.860Z,78.53
2023-04-08T21:36:16.395Z,79.39
2023-04-08T21:38:45.546Z,80.97
2023-04-08T21:41:14.439Z,80.64
2023-04-08T21:43:43.302Z,79.35
2023-04-08T21:46:11.631Z,78.59
2023-04-08T21:48:40.078Z,78.00
2023-04-08T21:51:14.526Z,78.30
2023-04-08T21:53:43.707Z,79.64
2023-04-08T21:56:13.584Z,79.92
2023-04-08T21:58:42.058Z,81.84
2023-04-08T22:01:15.527Z,80.86
2023-04-08T22:03:45.852Z,79.67
2023-04-08T22:06:25.609Z,79.51
2023-04-08T22:09:00.007Z,79.62
2023-04-08T22:11:28.781Z,79.43
2023-04-08T22:13:58.143Z,80.04
2023-04-08T22:16:27.183Z,79.73
2023-04-08T22:18:55.631Z,82.01
2023-04-08T22:21:30.479Z,82.18
2023-04-08T22:23:59.089Z,80.67
2023-04-08T22:26:28.124Z,80.08
2023-04-08T22:29:00.568Z,80.04
2023-04-08T22:31:30.096Z,80.45
2023-04-08T22:33:59.928Z,80.84
2023-04-08T22:36:28.576Z,80.37
2023-04-08T22:38:58.054Z,83.02
2023-04-08T22:41:26.700Z,83.52
2023-04-08T22:43:55.012Z,82.85
2023-04-08T22:46:24.697Z,82.19
2023-04-08T22:48:53.514Z,81.98
2023-04-08T22:51:22.720Z,81.19
2023-04-08T22:53:51.072Z,81.55
2023-04-08T22:56:19.292Z,82.43
2023-04-08T22:58:50.354Z,85.27
2023-04-08T23:01:22.583Z,84.91
2023-04-08T23:03:53.246Z,83.68
2023-04-08T23:06:29.043Z,83.05
2023-04-08T23:08:58.638Z,83.91
2023-04-08T23:11:27.316Z,84.21
2023-04-08T23:13:56.438Z,85.16
2023-04-08T23:16:24.777Z,87.39
2023-04-08T23:18:53.661Z,88.08
2023-04-08T23:21:27.179Z,86.43
2023-04-08T23:23:55.678Z,85.74
2023-04-08T23:26:25.280Z,84.76
2023-04-08T23:28:55.639Z,84.73
2023-04-08T23:31:24.221Z,84.78
2023-04-08T23:33:53.663Z,86.29
2023-04-08T23:36:23.275Z,88.68
2023-04-08T23:38:51.774Z,88.97
2023-04-08T23:41:20.743Z,87.75
2023-04-08T23:43:54.264Z,86.97
2023-04-08T23:46:23.749Z,86.75
2023-04-08T23:48:57.829Z,87.36
2023-04-08T23:51:27.978Z,87.54
2023-04-08T23:53:56.774Z,89.31
2023-04-08T23:56:26.083Z,88.98
2023-04-08T23:58:55.238Z,87.61
